createdAt,value
2019-02-25T00:02:27.176Z,4.59
2019-02-25T00:04:53.896Z,4.70
2019-02-25T00:07:20.654Z,4.47
2019-02-25T00:09:47.370Z,4.51
2019-02-25T00:12:14.406Z,4.43
2019-02-25T00:14:41.106Z,4.48
2019-02-25T00:17:07.857Z,4.52
2019-02-25T00:19:34.586Z,4.47
2019-02-25T00:22:01.434Z,4.52
2019-02-25T00:24:28.221Z,4.56
2019-02-25T00:26:55.009Z,4.60
2019-02-25T00:29:21.733Z,4.61
2019-02-25T00:31:48.721Z,4.58
2019-02-25T00:34:15.459Z,4.51
2019-02-25T00:36:42.369Z,4.48
2019-02-25T00:39:09.308Z,4.55
2019-02-25T00:41:36.022Z,4.61
2019-02-25T00:44:03.107Z,4.53
2019-02-25T00:46:30.262Z,4.55
2019-02-25T00:48:56.983Z,4.57
2019-02-25T00:51:23.691Z,4.60
2019-02-25T00:53:50.457Z,4.43
2019-02-25T00:56:17.161Z,4.43
2019-02-25T00:58:43.908Z,4.51
2019-02-25T01:01:10.770Z,4.42
2019-02-25T01:03:37.600Z,4.39
2019-02-25T01:06:04.698Z,4.26
2019-02-25T01:08:31.638Z,4.04
2019-02-25T01:10:58.358Z,4.15
2019-02-25T01:13:25.269Z,4.15
2019-02-25T01:15:52.332Z,4.31
2019-02-25T01:18:19.069Z,4.22
2019-02-25T01:20:45.772Z,4.12
2019-02-25T01:23:13.472Z,4.11
2019-02-25T01:25:40.230Z,4.03
2019-02-25T01:28:06.958Z,4.03
2019-02-25T01:30:33.676Z,4.02
2019-02-25T01:33:01.558Z,3.97
2019-02-25T01:35:28.332Z,3.95
2019-02-25T01:37:55.298Z,4.03
2019-02-25T01:40:22.028Z,4.05
2019-02-25T01:42:48.768Z,4.02
2019-02-25T01:45:15.883Z,3.96
2019-02-25T01:47:42.605Z,4.01
2019-02-25T01:50:09.566Z,3.87
2019-02-25T01:52:38.226Z,3.61
2019-02-25T01:55:05.722Z,3.60
2019-02-25T01:57:34.785Z,3.63
2019-02-25T02:00:01.552Z,3.71
2019-02-25T02:02:28.312Z,3.73
2019-02-25T02:04:55.041Z,3.68
2019-02-25T02:07:21.872Z,3.66
2019-02-25T02:09:48.592Z,3.51
2019-02-25T02:12:15.348Z,3.39
2019-02-25T02:14:42.469Z,3.26
2019-02-25T02:17:09.310Z,3.18
2019-02-25T02:19:36.039Z,3.12
2019-02-25T02:22:02.737Z,3.21
2019-02-25T02:24:32.211Z,3.18
2019-02-25T02:26:59.044Z,3.23
2019-02-25T02:29:26.134Z,3.38
2019-02-25T02:31:55.554Z,3.46
2019-02-25T02:34:22.314Z,3.53
2019-02-25T02:36:49.043Z,3.49
2019-02-25T02:39:15.788Z,3.44
2019-02-25T02:42:11.662Z,3.36
2019-02-25T02:44:39.046Z,3.40
2019-02-25T02:47:36.849Z,3.59
2019-02-25T02:50:05.704Z,3.52
2019-02-25T02:52:32.557Z,3.49
2019-02-25T02:55:01.851Z,3.47
2019-02-25T02:57:28.593Z,3.42
2019-02-25T02:59:55.311Z,3.41
2019-02-25T03:02:22.455Z,3.33
2019-02-25T03:04:49.154Z,3.16
2019-02-25T03:07:15.889Z,3.13
2019-02-25T03:09:42.722Z,3.24
2019-02-25T03:12:09.449Z,3.23
2019-02-25T03:14:36.200Z,3.35
2019-02-25T03:17:03.035Z,3.38
2019-02-25T03:19:30.244Z,3.44
2019-02-25T03:21:56.950Z,3.47
2019-02-25T03:24:23.671Z,3.50
2019-02-25T03:26:50.512Z,3.36
2019-02-25T03:29:17.235Z,3.21
2019-02-25T03:31:43.930Z,3.24
2019-02-25T03:34:10.997Z,3.30
2019-02-25T03:36:37.700Z,3.23
2019-02-25T03:39:05.500Z,3.26
2019-02-25T03:41:32.238Z,3.45
2019-02-25T03:43:58.947Z,3.47
2019-02-25T03:46:25.720Z,3.52
2019-02-25T03:48:52.478Z,3.58
2019-02-25T03:51:19.227Z,3.52
2019-02-25T03:53:45.957Z,3.56
2019-02-25T03:56:12.707Z,3.47
2019-02-25T03:58:39.418Z,3.41
2019-02-25T04:01:06.327Z,3.51
2019-02-25T04:03:33.100Z,3.37
2019-02-25T04:05:59.753Z,3.10
2019-02-25T04:08:26.503Z,3.18
2019-02-25T04:10:53.836Z,3.20
2019-02-25T04:13:20.675Z,3.28
2019-02-25T04:15:49.474Z,3.32
2019-02-25T04:18:16.195Z,3.32
2019-02-25T04:20:42.954Z,3.37
2019-02-25T04:23:09.713Z,3.38
2019-02-25T04:25:36.447Z,3.43
2019-02-25T04:28:03.357Z,3.54
2019-02-25T04:30:30.188Z,3.53
2019-02-25T04:32:56.861Z,3.50
2019-02-25T04:35:23.590Z,3.56
2019-02-25T04:37:50.423Z,3.34
2019-02-25T04:40:17.494Z,3.33
2019-02-25T04:42:44.540Z,3.28
2019-02-25T04:45:13.061Z,3.29
2019-02-25T04:47:39.782Z,3.44
2019-02-25T04:50:07.710Z,3.51
2019-02-25T04:52:34.391Z,3.49
2019-02-25T04:55:01.125Z,3.46
2019-02-25T04:57:27.823Z,3.48
2019-02-25T04:59:54.536Z,3.50
2019-02-25T05:02:23.281Z,3.56
2019-02-25T05:04:50.697Z,3.60
2019-02-25T05:07:17.408Z,3.59
2019-02-25T05:09:44.157Z,3.54
2019-02-25T05:12:10.871Z,3.52
2019-02-25T05:14:37.611Z,3.49
2019-02-25T05:17:04.313Z,3.52
2019-02-25T05:19:32.789Z,3.52
2019-02-25T05:21:59.601Z,3.52
2019-02-25T05:24:26.328Z,3.58
2019-02-25T05:26:53.053Z,3.75
2019-02-25T05:29:22.818Z,3.49
2019-02-25T05:31:49.540Z,3.42
2019-02-25T05:34:16.266Z,3.39
2019-02-25T05:36:42.998Z,3.43
2019-02-25T05:39:09.739Z,3.54
2019-02-25T05:41:36.475Z,3.62
2019-02-25T05:44:03.238Z,3.57
2019-02-25T05:46:29.985Z,3.44
2019-02-25T05:48:59.550Z,3.33
2019-02-25T05:51:26.285Z,3.39
2019-02-25T05:53:52.983Z,3.21
2019-02-25T05:56:19.728Z,3.26
2019-02-25T05:58:46.468Z,3.20
2019-02-25T06:01:13.276Z,3.26
2019-02-25T06:03:41.335Z,3.40
2019-02-25T06:06:08.044Z,3.40
2019-02-25T06:08:34.814Z,3.36
2019-02-25T06:11:01.541Z,3.32
2019-02-25T06:13:28.437Z,3.38
2019-02-25T06:15:58.219Z,3.41
2019-02-25T06:18:24.974Z,3.47
2019-02-25T06:20:54.425Z,3.44
2019-02-25T06:23:22.718Z,3.44
2019-02-25T06:25:50.624Z,3.48
2019-02-25T06:28:22.767Z,3.36
2019-02-25T06:30:49.641Z,3.33
2019-02-25T06:33:16.481Z,3.37
2019-02-25T06:35:46.230Z,3.44
2019-02-25T06:38:13.016Z,3.55
2019-02-25T06:40:45.203Z,3.56
2019-02-25T06:43:12.314Z,3.51
2019-02-25T06:45:41.287Z,3.43
2019-02-25T06:48:08.025Z,3.51
2019-02-25T06:50:34.773Z,3.48
2019-02-25T06:53:03.801Z,3.43
2019-02-25T06:55:33.662Z,3.42
2019-02-25T06:58:00.399Z,3.54
2019-02-25T07:00:27.117Z,3.51
2019-02-25T07:02:53.982Z,3.47
2019-02-25T07:05:39.075Z,3.47
2019-02-25T07:08:15.059Z,3.54
2019-02-25T07:11:04.514Z,3.62
2019-02-25T07:13:49.697Z,3.78
2019-02-25T07:16:42.323Z,3.70
2019-02-25T07:19:27.445Z,3.58
2019-02-25T07:22:06.005Z,3.64
2019-02-25T07:25:10.751Z,3.75
2019-02-25T07:28:03.212Z,3.72
2019-02-25T07:30:55.131Z,3.82
2019-02-25T07:33:39.787Z,3.80
2019-02-25T07:36:30.020Z,3.83
2019-02-25T07:39:25.503Z,3.80
2019-02-25T07:42:20.988Z,3.85
2019-02-25T07:45:03.459Z,4.04
2019-02-25T07:48:03.010Z,4.16
2019-02-25T07:50:47.989Z,4.24
2019-02-25T07:53:33.076Z,4.34
2019-02-25T07:56:35.218Z,4.38
2019-02-25T07:59:17.110Z,4.55
2019-02-25T08:02:03.530Z,4.69
2019-02-25T08:05:07.963Z,4.82
2019-02-25T08:07:52.086Z,4.92
2019-02-25T08:10:37.218Z,4.98
2019-02-25T08:13:24.657Z,5.17
2019-02-25T08:16:04.167Z,5.34
2019-02-25T08:18:54.410Z,5.36
2019-02-25T08:21:47.939Z,5.43
2019-02-25T08:24:30.476Z,5.56
2019-02-25T08:27:04.324Z,5.67
2019-02-25T08:29:36.928Z,5.89
2019-02-25T08:32:22.283Z,5.85
2019-02-25T08:35:07.184Z,5.88
2019-02-25T08:38:02.134Z,6.14
2019-02-25T08:40:59.637Z,6.40
2019-02-25T08:43:30.151Z,6.59
2019-02-25T08:46:02.718Z,6.74
2019-02-25T08:48:33.570Z,6.86
2019-02-25T08:51:00.304Z,6.97
2019-02-25T08:53:27.083Z,7.03
2019-02-25T08:55:58.984Z,7.27
2019-02-25T08:58:26.098Z,7.27
2019-02-25T09:00:53.077Z,7.38
2019-02-25T09:03:28.021Z,7.57
2019-02-25T09:05:56.069Z,7.68
2019-02-25T09:08:22.830Z,7.68
2019-02-25T09:10:49.651Z,8.03
2019-02-25T09:13:18.851Z,8.03
2019-02-25T09:15:45.654Z,8.11
2019-02-25T09:18:12.554Z,8.23
2019-02-25T09:20:39.663Z,8.57
2019-02-25T09:23:06.422Z,8.69
2019-02-25T09:25:33.359Z,8.84
2019-02-25T09:28:00.104Z,8.84
2019-02-25T09:30:26.879Z,9.10
2019-02-25T09:32:56.463Z,9.10
2019-02-25T09:35:23.306Z,9.25
2019-02-25T09:37:50.044Z,9.35
2019-02-25T09:40:17.002Z,9.47
2019-02-25T09:42:43.722Z,9.62
2019-02-25T09:45:14.022Z,9.78
2019-02-25T09:47:40.784Z,9.91
2019-02-25T09:50:08.888Z,10.03
2019-02-25T09:52:35.628Z,10.13
2019-02-25T09:55:02.369Z,10.25
2019-02-25T09:57:29.116Z,10.38
2019-02-25T09:59:55.860Z,10.53
2019-02-25T10:02:24.710Z,10.65
2019-02-25T10:04:51.325Z,10.72
2019-02-25T10:07:18.185Z,10.84
2019-02-25T10:09:47.911Z,10.92
2019-02-25T10:12:14.659Z,11.00
2019-02-25T10:14:41.407Z,11.06
2019-02-25T10:17:08.233Z,11.11
2019-02-25T10:19:35.040Z,11.19
2019-02-25T10:22:02.114Z,11.30
2019-02-25T10:24:29.043Z,11.33
2019-02-25T10:26:56.542Z,11.42
2019-02-25T10:29:23.352Z,11.55
2019-02-25T10:31:53.199Z,11.65
2019-02-25T10:34:19.994Z,11.76
2019-02-25T10:36:48.205Z,11.78
2019-02-25T10:39:17.353Z,11.89
2019-02-25T10:41:47.992Z,11.97
2019-02-25T10:44:14.748Z,12.10
2019-02-25T10:46:42.863Z,12.21
2019-02-25T10:49:11.860Z,12.29
2019-02-25T10:51:40.695Z,12.40
2019-02-25T10:54:07.401Z,12.46
2019-02-25T10:56:47.345Z,12.57
2019-02-25T10:59:17.254Z,12.71
2019-02-25T11:01:45.794Z,12.75
2019-02-25T11:04:12.629Z,12.83
2019-02-25T11:06:39.593Z,12.94
2019-02-25T11:09:30.497Z,13.07
2019-02-25T11:11:59.938Z,13.16
2019-02-25T11:14:26.485Z,13.26
2019-02-25T11:16:53.588Z,13.35
2019-02-25T11:19:22.335Z,13.46
2019-02-25T11:21:49.192Z,13.51
2019-02-25T11:24:17.016Z,13.62
2019-02-25T11:26:45.089Z,13.73
2019-02-25T11:29:13.727Z,13.83
2019-02-25T11:31:47.315Z,13.91
2019-02-25T11:34:18.394Z,14.03
2019-02-25T11:36:45.454Z,14.15
2019-02-25T11:39:13.847Z,14.30
2019-02-25T11:41:42.288Z,14.41
2019-02-25T11:44:09.071Z,14.51
2019-02-25T11:46:37.927Z,14.64
2019-02-25T11:49:04.814Z,14.72
2019-02-25T11:51:31.926Z,14.76
2019-02-25T11:53:59.538Z,14.81
2019-02-25T11:56:28.047Z,14.89
2019-02-25T11:59:00.520Z,14.90
2019-02-25T12:01:27.505Z,15.01
2019-02-25T12:03:54.317Z,15.14
2019-02-25T12:06:21.206Z,15.21
2019-02-25T12:08:48.100Z,15.23
2019-02-25T12:11:15.010Z,15.35
2019-02-25T12:13:41.863Z,15.43
2019-02-25T12:16:08.612Z,15.56
2019-02-25T12:18:35.473Z,15.66
2019-02-25T12:21:04.512Z,15.73
2019-02-25T12:23:31.537Z,15.81
2019-02-25T12:26:00.259Z,15.88
2019-02-25T12:28:27.250Z,15.87
2019-02-25T12:30:54.075Z,15.96
2019-02-25T12:33:21.482Z,16.13
2019-02-25T12:35:48.707Z,16.28
2019-02-25T12:38:15.666Z,16.39
2019-02-25T12:40:42.450Z,16.47
2019-02-25T12:43:09.201Z,16.59
2019-02-25T12:45:36.148Z,16.69
2019-02-25T12:48:02.982Z,16.77
2019-02-25T12:50:29.886Z,16.89
2019-02-25T12:52:59.466Z,17.00
2019-02-25T12:55:26.756Z,17.11
2019-02-25T12:57:53.511Z,17.19
2019-02-25T13:00:20.422Z,17.26
2019-02-25T13:02:47.164Z,17.24
2019-02-25T13:05:14.720Z,17.29
2019-02-25T13:07:41.446Z,17.40
2019-02-25T13:10:10.350Z,17.42
2019-02-25T13:12:37.098Z,17.57
2019-02-25T13:15:13.134Z,17.67
2019-02-25T13:17:33.908Z,17.64
2019-02-25T13:20:00.674Z,17.78
2019-02-25T13:22:28.170Z,17.95
2019-02-25T13:24:54.932Z,18.17
2019-02-25T13:27:21.904Z,18.35
2019-02-25T13:29:49.693Z,18.46
2019-02-25T13:32:16.896Z,18.38
2019-02-25T13:34:47.448Z,18.37
2019-02-25T13:37:14.521Z,18.59
2019-02-25T13:39:45.612Z,18.69
2019-02-25T13:42:14.482Z,18.87
2019-02-25T13:44:41.412Z,18.85
2019-02-25T13:47:09.712Z,19.06
2019-02-25T13:49:38.888Z,19.22
2019-02-25T13:52:05.925Z,19.17
2019-02-25T13:54:33.090Z,19.20
2019-02-25T13:57:02.172Z,19.50
2019-02-25T13:59:28.994Z,19.63
2019-02-25T14:01:55.836Z,19.89
2019-02-25T14:04:22.903Z,20.02
2019-02-25T14:06:51.623Z,20.23
2019-02-25T14:09:18.580Z,20.23
2019-02-25T14:11:46.866Z,20.54
2019-02-25T14:14:14.186Z,20.74
2019-02-25T14:16:41.268Z,20.74
2019-02-25T14:19:08.020Z,20.81
2019-02-25T14:21:37.236Z,20.98
2019-02-25T14:24:03.992Z,20.89
2019-02-25T14:26:32.884Z,20.90
2019-02-25T14:28:59.455Z,20.74
2019-02-25T14:31:27.335Z,20.88
2019-02-25T14:33:55.168Z,21.15
2019-02-25T14:36:22.134Z,21.10
2019-02-25T14:38:49.303Z,20.97
2019-02-25T14:41:18.544Z,21.11
2019-02-25T14:43:49.186Z,21.15
2019-02-25T14:46:17.346Z,20.84
2019-02-25T14:48:44.521Z,20.66
2019-02-25T14:51:11.568Z,20.21
2019-02-25T14:53:38.324Z,19.79
2019-02-25T14:56:05.092Z,19.50
2019-02-25T14:58:35.483Z,19.21
2019-02-25T15:01:00.541Z,18.99
2019-02-25T15:03:29.125Z,18.72
2019-02-25T15:05:57.085Z,18.55
2019-02-25T15:08:26.355Z,18.41
2019-02-25T15:10:57.704Z,18.37
2019-02-25T15:13:28.147Z,18.34
2019-02-25T15:15:55.605Z,18.26
2019-02-25T15:18:24.510Z,18.21
2019-02-25T15:20:51.301Z,18.11
2019-02-25T15:23:23.162Z,17.99
2019-02-25T15:25:47.220Z,17.94
2019-02-25T15:28:20.353Z,17.88
2019-02-25T15:30:48.052Z,17.85
2019-02-25T15:33:14.817Z,17.75
2019-02-25T15:35:43.834Z,17.64
2019-02-25T15:38:10.759Z,17.60
2019-02-25T15:40:37.613Z,17.52
2019-02-25T15:43:13.212Z,17.51
2019-02-25T15:45:40.618Z,17.52
2019-02-25T15:48:13.143Z,17.49
2019-02-25T15:50:40.243Z,17.37
2019-02-25T15:53:07.794Z,17.27
2019-02-25T15:55:35.718Z,17.24
2019-02-25T15:58:02.483Z,17.23
2019-02-25T16:00:32.129Z,17.19
2019-02-25T16:02:59.277Z,17.11
2019-02-25T16:05:27.395Z,17.01
2019-02-25T16:07:57.949Z,16.97
2019-02-25T16:10:28.186Z,16.91
2019-02-25T16:12:56.223Z,16.86
2019-02-25T16:15:24.294Z,16.83
2019-02-25T16:17:51.646Z,16.74
2019-02-25T16:20:19.624Z,16.66
2019-02-25T16:22:46.689Z,16.61
2019-02-25T16:25:14.258Z,16.56
2019-02-25T16:27:41.569Z,16.54
2019-02-25T16:30:10.754Z,16.55
2019-02-25T16:32:40.104Z,16.48
2019-02-25T16:35:07.978Z,16.39
2019-02-25T16:37:35.551Z,16.41
2019-02-25T16:40:03.821Z,16.87
2019-02-25T16:42:32.390Z,17.40
2019-02-25T16:45:01.333Z,17.59
2019-02-25T16:47:32.871Z,17.66
2019-02-25T16:49:58.592Z,17.67
2019-02-25T16:52:26.739Z,17.70
2019-02-25T16:54:53.693Z,17.77
2019-02-25T16:57:22.728Z,17.78
2019-02-25T16:59:53.332Z,17.83
2019-02-25T17:02:19.921Z,17.85
2019-02-25T17:04:47.017Z,17.88
2019-02-25T17:07:15.628Z,17.88
2019-02-25T17:09:43.013Z,17.94
2019-02-25T17:12:09.865Z,17.97
2019-02-25T17:14:40.027Z,17.87
2019-02-25T17:17:06.351Z,17.76
2019-02-25T17:19:33.234Z,17.85
2019-02-25T17:22:00.099Z,17.96
2019-02-25T17:24:28.074Z,17.89
2019-02-25T17:26:55.578Z,17.85
2019-02-25T17:29:23.118Z,17.23
2019-02-25T17:31:52.723Z,16.62
2019-02-25T17:34:21.055Z,16.25
2019-02-25T17:36:49.872Z,16.04
2019-02-25T17:39:17.184Z,15.82
2019-02-25T17:41:44.796Z,15.71
2019-02-25T17:44:11.723Z,15.61
2019-02-25T17:46:39.528Z,15.45
2019-02-25T17:49:07.891Z,15.34
2019-02-25T17:51:39.332Z,15.26
2019-02-25T17:54:10.298Z,15.18
2019-02-25T17:56:37.532Z,15.08
2019-02-25T17:59:05.561Z,15.00
2019-02-25T18:01:33.607Z,14.92
2019-02-25T18:04:02.576Z,14.81
2019-02-25T18:06:31.938Z,14.72
2019-02-25T18:08:59.996Z,14.59
2019-02-25T18:11:28.077Z,14.44
2019-02-25T18:13:55.629Z,14.25
2019-02-25T18:16:32.836Z,14.05
2019-02-25T18:19:04.612Z,13.97
2019-02-25T18:21:33.971Z,13.90
2019-02-25T18:24:00.941Z,13.75
2019-02-25T18:26:28.592Z,13.64
2019-02-25T18:29:01.244Z,13.60
2019-02-25T18:31:28.458Z,13.65
2019-02-25T18:33:55.191Z,13.63
2019-02-25T18:36:23.893Z,13.59
2019-02-25T18:38:51.111Z,13.53
2019-02-25T18:41:21.535Z,13.37
2019-02-25T18:43:49.350Z,13.28
2019-02-25T18:46:19.160Z,13.16
2019-02-25T18:48:46.737Z,13.02
2019-02-25T18:51:14.763Z,12.91
2019-02-25T18:53:42.069Z,12.77
2019-02-25T18:56:11.966Z,12.70
2019-02-25T18:58:40.084Z,12.72
2019-02-25T19:01:09.732Z,12.63
2019-02-25T19:03:36.962Z,12.55
2019-02-25T19:06:03.980Z,12.43
2019-02-25T19:08:31.011Z,11.31
2019-02-25T19:10:57.723Z,12.29
2019-02-25T19:13:25.269Z,12.22
2019-02-25T19:15:54.829Z,12.17
2019-02-25T19:18:21.769Z,12.03
2019-02-25T19:20:50.398Z,12.03
2019-02-25T19:23:17.457Z,11.92
2019-02-25T19:25:44.763Z,11.81
2019-02-25T19:28:16.574Z,11.75
2019-02-25T19:30:43.596Z,11.73
2019-02-25T19:33:11.525Z,11.62
2019-02-25T19:35:40.699Z,11.54
2019-02-25T19:38:08.328Z,11.50
2019-02-25T19:40:38.406Z,11.32
2019-02-25T19:43:06.021Z,11.23
2019-02-25T19:45:34.271Z,11.01
2019-02-25T19:48:06.705Z,10.85
2019-02-25T19:50:34.696Z,10.73
2019-02-25T19:53:05.237Z,10.71
2019-02-25T19:55:40.451Z,10.73
2019-02-25T19:58:05.915Z,10.73
2019-02-25T20:00:34.050Z,10.59
2019-02-25T20:03:05.538Z,10.62
2019-02-25T20:05:30.575Z,10.70
2019-02-25T20:07:57.304Z,10.66
2019-02-25T20:10:24.273Z,10.53
2019-02-25T20:12:53.190Z,10.44
2019-02-25T20:15:24.731Z,10.27
2019-02-25T20:17:50.656Z,10.10
2019-02-25T20:20:18.272Z,10.10
2019-02-25T20:22:45.338Z,10.10
2019-02-25T20:25:12.610Z,10.09
2019-02-25T20:27:41.179Z,10.05
2019-02-25T20:30:10.811Z,10.00
2019-02-25T20:32:40.689Z,10.02
2019-02-25T20:35:10.003Z,9.97
2019-02-25T20:37:36.748Z,9.93
2019-02-25T20:40:11.690Z,9.91
2019-02-25T20:42:38.400Z,9.10
2019-02-25T20:45:08.766Z,9.83
2019-02-25T20:47:35.981Z,9.85
2019-02-25T20:50:05.411Z,9.78
2019-02-25T20:52:34.069Z,9.73
2019-02-25T20:55:03.812Z,9.68
2019-02-25T20:57:31.705Z,9.56
2019-02-25T20:59:59.498Z,9.41
2019-02-25T21:02:26.193Z,9.38
2019-02-25T21:04:53.046Z,9.30
2019-02-25T21:07:19.770Z,9.33
2019-02-25T21:09:50.044Z,9.16
2019-02-25T21:12:19.822Z,9.10
2019-02-25T21:14:48.569Z,9.01
2019-02-25T21:17:18.457Z,8.91
2019-02-25T21:19:45.195Z,8.86
2019-02-25T21:22:11.921Z,8.86
2019-02-25T21:24:40.308Z,8.80
2019-02-25T21:27:09.972Z,8.75
2019-02-25T21:29:38.350Z,8.65
2019-02-25T21:32:07.226Z,8.64
2019-02-25T21:34:33.989Z,8.67
2019-02-25T21:37:02.919Z,8.70
2019-02-25T21:39:29.669Z,8.77
2019-02-25T21:41:56.550Z,8.62
2019-02-25T21:44:24.251Z,8.60
2019-02-25T21:46:54.006Z,8.39
2019-02-25T21:49:26.997Z,8.23
2019-02-25T21:51:52.003Z,8.20
2019-02-25T21:54:18.726Z,8.15
2019-02-25T21:56:45.565Z,8.17
2019-02-25T21:59:13.153Z,8.15
2019-02-25T22:01:41.184Z,8.19
2019-02-25T22:04:11.214Z,8.18
2019-02-25T22:06:40.011Z,8.12
2019-02-25T22:09:07.431Z,8.17
2019-02-25T22:11:34.175Z,8.15
2019-02-25T22:14:01.503Z,8.00
2019-02-25T22:16:29.935Z,8.02
2019-02-25T22:18:58.674Z,7.95
2019-02-25T22:21:25.711Z,7.89
2019-02-25T22:23:56.107Z,7.89
2019-02-25T22:26:24.458Z,7.77
2019-02-25T22:28:51.056Z,7.60
2019-02-25T22:31:18.751Z,7.48
2019-02-25T22:33:46.823Z,7.43
2019-02-25T22:36:13.583Z,7.48
2019-02-25T22:38:41.147Z,7.39
2019-02-25T22:41:07.920Z,7.21
2019-02-25T22:43:36.735Z,7.20
2019-02-25T22:46:05.419Z,7.13
2019-02-25T22:48:32.286Z,7.13
2019-02-25T22:51:00.718Z,7.15
2019-02-25T22:53:27.684Z,7.09
2019-02-25T22:55:57.433Z,7.09
2019-02-25T22:58:25.229Z,7.09
2019-02-25T23:00:58.281Z,7.11
2019-02-25T23:03:25.661Z,7.19
2019-02-25T23:05:53.295Z,7.09
2019-02-25T23:08:23.439Z,7.28
2019-02-25T23:10:51.532Z,7.33
2019-02-25T23:13:22.682Z,6.89
2019-02-25T23:15:51.247Z,6.89
2019-02-25T23:18:19.983Z,6.82
2019-02-25T23:20:47.392Z,6.86
2019-02-25T23:23:14.153Z,6.86
2019-02-25T23:25:40.909Z,6.84
2019-02-25T23:28:07.622Z,6.83
2019-02-25T23:30:39.113Z,6.86
2019-02-25T23:33:08.021Z,6.93
2019-02-25T23:35:34.328Z,6.99
2019-02-25T23:38:01.118Z,6.95
2019-02-25T23:40:31.220Z,7.01
2019-02-25T23:42:56.530Z,6.89
2019-02-25T23:45:23.406Z,6.89
2019-02-25T23:47:55.246Z,6.89
2019-02-25T23:50:20.976Z,6.74
2019-02-25T23:52:47.799Z,6.74
2019-02-25T23:55:16.737Z,6.75
2019-02-25T23:57:43.200Z,6.75
